sensor_id;sensor_type;location;lat;lon;timestamp;pressure;altitude;pressure_sealevel;temperature;humidity
12594;BME280;6362;50.208;9.182;2022-11-13T00:00:27;101014.06;;;3.27;100.00
12594;BME280;6362;50.208;9.182;2022-11-13T00:02:52;101012.25;;;3.25;100.00
12594;BME280;6362;50.208;9.182;2022-11-13T00:05:17;101007.00;;;3.22;100.00
12594;BME280;6362;50.208;9.182;2022-11-13T00:07:43;101010.16;;;3.18;100.00
12594;BME280;6362;50.208;9.182;2022-11-13T00:10:08;101009.34;;;3.19;100.00
12594;BME280;6362;50.208;9.182;2022-11-13T00:12:34;101006.47;;;3.12;100.00
12594;BME280;6362;50.208;9.182;2022-11-13T00:14:59;101015.41;;;3.07;100.00
12594;BME280;6362;50.208;9.182;2022-11-13T00:17:25;101014.47;;;3.05;100.00
12594;BME280;6362;50.208;9.182;2022-11-13T00:19:50;101011.66;;;3.01;100.00
12594;BME280;6362;50.208;9.182;2022-11-13T00:22:15;101010.72;;;2.99;100.00
12594;BME280;6362;50.208;9.182;2022-11-13T00:24:41;101005.38;;;2.94;100.00
12594;BME280;6362;50.208;9.182;2022-11-13T00:27:06;101004.53;;;2.94;100.00
12594;BME280;6362;50.208;9.182;2022-11-13T00:29:32;100997.66;;;2.91;100.00
12594;BME280;6362;50.208;9.182;2022-11-13T00:31:57;101000.88;;;2.88;100.00
12594;BME280;6362;50.208;9.182;2022-11-13T00:34:22;100993.81;;;2.83;100.00
12594;BME280;6362;50.208;9.182;2022-11-13T00:36:48;100991.88;;;2.79;100.00
12594;BME280;6362;50.208;9.182;2022-11-13T00:39:13;100987.16;;;2.70;100.00
12594;BME280;6362;50.208;9.182;2022-11-13T00:41:39;100982.75;;;2.66;100.00
12594;BME280;6362;50.208;9.182;2022-11-13T00:44:04;100983.31;;;2.62;100.00
12594;BME280;6362;50.208;9.182;2022-11-13T00:46:30;100981.97;;;2.54;100.00
12594;BME280;6362;50.208;9.182;2022-11-13T00:48:55;100981.81;;;2.50;100.00
12594;BME280;6362;50.208;9.182;2022-11-13T00:51:21;100986.16;;;2.53;100.00
12594;BME280;6362;50.208;9.182;2022-11-13T00:53:46;100987.19;;;2.57;100.00
12594;BME280;6362;50.208;9.182;2022-11-13T00:56:12;100984.53;;;2.40;100.00
12594;BME280;6362;50.208;9.182;2022-11-13T00:58:37;100982.31;;;2.32;100.00
12594;BME280;6362;50.208;9.182;2022-11-13T01:01:12;100982.13;;;2.28;100.00
12594;BME280;6362;50.208;9.182;2022-11-13T01:03:38;100979.16;;;2.21;100.00
12594;BME280;6362;50.208;9.182;2022-11-13T01:06:13;100977.41;;;2.20;100.00
12594;BME280;6362;50.208;9.182;2022-11-13T01:08:40;100981.41;;;2.16;100.00
12594;BME280;6362;50.208;9.182;2022-11-13T01:11:13;100984.22;;;2.07;100.00
12594;BME280;6362;50.208;9.182;2022-11-13T01:13:40;100980.78;;;2.07;100.00
12594;BME280;6362;50.208;9.182;2022-11-13T01:16:07;100978.59;;;1.98;100.00
12594;BME280;6362;50.208;9.182;2022-11-13T01:18:34;100970.66;;;1.92;100.00
12594;BME280;6362;50.208;9.182;2022-11-13T01:21:14;100970.66;;;1.92;100.00
12594;BME280;6362;50.208;9.182;2022-11-13T01:23:41;100966.88;;;1.85;100.00
12594;BME280;6362;50.208;9.182;2022-11-13T01:26:10;100969.97;;;1.95;100.00
12594;BME280;6362;50.208;9.182;2022-11-13T01:28:36;100974.03;;;1.93;100.00
12594;BME280;6362;50.208;9.182;2022-11-13T01:31:11;100968.44;;;1.83;100.00
12594;BME280;6362;50.208;9.182;2022-11-13T01:33:37;100969.41;;;1.72;100.00
12594;BME280;6362;50.208;9.182;2022-11-13T01:36:09;100966.50;;;1.66;100.00
12594;BME280;6362;50.208;9.182;2022-11-13T01:38:36;100960.31;;;1.61;100.00
12594;BME280;6362;50.208;9.182;2022-11-13T01:41:02;100959.63;;;1.63;100.00
12594;BME280;6362;50.208;9.182;2022-11-13T01:43:34;100966.88;;;1.59;100.00
12594;BME280;6362;50.208;9.182;2022-11-13T01:48:36;100951.19;;;1.50;100.00
12594;BME280;6362;50.208;9.182;2022-11-13T01:51:08;100953.13;;;1.40;100.00
12594;BME280;6362;50.208;9.182;2022-11-13T01:53:36;100950.31;;;1.36;100.00
12594;BME280;6362;50.208;9.182;2022-11-13T01:56:02;100950.03;;;1.44;100.00
12594;BME280;6362;50.208;9.182;2022-11-13T01:58:27;100951.69;;;1.31;100.00
12594;BME280;6362;50.208;9.182;2022-11-13T02:00:53;100949.13;;;1.17;100.00
12594;BME280;6362;50.208;9.182;2022-11-13T02:03:19;100951.13;;;1.10;100.00
12594;BME280;6362;50.208;9.182;2022-11-13T02:05:44;100957.44;;;1.16;100.00
12594;BME280;6362;50.208;9.182;2022-11-13T02:08:10;100955.19;;;1.08;100.00
12594;BME280;6362;50.208;9.182;2022-11-13T02:10:36;100955.97;;;1.07;100.00
12594;BME280;6362;50.208;9.182;2022-11-13T02:13:01;100949.00;;;1.02;100.00
12594;BME280;6362;50.208;9.182;2022-11-13T02:15:30;100952.94;;;0.99;100.00
12594;BME280;6362;50.208;9.182;2022-11-13T02:17:59;100944.91;;;0.91;100.00
12594;BME280;6362;50.208;9.182;2022-11-13T02:21:04;100944.59;;;0.87;100.00
12594;BME280;6362;50.208;9.182;2022-11-13T02:23:46;100940.72;;;0.92;100.00
12594;BME280;6362;50.208;9.182;2022-11-13T02:26:14;100939.88;;;0.91;100.00
12594;BME280;6362;50.208;9.182;2022-11-13T02:28:41;100934.16;;;0.94;100.00
12594;BME280;6362;50.208;9.182;2022-11-13T02:31:10;100936.50;;;0.91;100.00
12594;BME280;6362;50.208;9.182;2022-11-13T02:33:37;100939.41;;;0.97;100.00
12594;BME280;6362;50.208;9.182;2022-11-13T02:36:03;100936.69;;;0.94;100.00
12594;BME280;6362;50.208;9.182;2022-11-13T02:38:31;100934.34;;;0.83;100.00
12594;BME280;6362;50.208;9.182;2022-11-13T02:40:57;100929.88;;;0.79;100.00
12594;BME280;6362;50.208;9.182;2022-11-13T02:43:22;100931.53;;;0.79;100.00
12594;BME280;6362;50.208;9.182;2022-11-13T02:45:47;100927.38;;;0.79;100.00
12594;BME280;6362;50.208;9.182;2022-11-13T02:48:13;100935.97;;;0.83;100.00
12594;BME280;6362;50.208;9.182;2022-11-13T02:50:38;100939.25;;;0.82;100.00
12594;BME280;6362;50.208;9.182;2022-11-13T02:53:04;100926.97;;;0.73;100.00
12594;BME280;6362;50.208;9.182;2022-11-13T02:55:30;100926.84;;;0.72;100.00
12594;BME280;6362;50.208;9.182;2022-11-13T02:57:55;100931.69;;;0.69;100.00
12594;BME280;6362;50.208;9.182;2022-11-13T03:00:21;100931.56;;;0.67;100.00
12594;BME280;6362;50.208;9.182;2022-11-13T03:02:47;100929.06;;;0.67;100.00
12594;BME280;6362;50.208;9.182;2022-11-13T03:05:12;100929.06;;;0.67;100.00
12594;BME280;6362;50.208;9.182;2022-11-13T03:07:37;100929.28;;;0.70;100.00
12594;BME280;6362;50.208;9.182;2022-11-13T03:10:03;100919.22;;;0.70;100.00
12594;BME280;6362;50.208;9.182;2022-11-13T03:12:29;100917.69;;;0.72;100.00
12594;BME280;6362;50.208;9.182;2022-11-13T03:14:54;100912.75;;;0.74;100.00
12594;BME280;6362;50.208;9.182;2022-11-13T03:17:19;100916.13;;;0.74;100.00
12594;BME280;6362;50.208;9.182;2022-11-13T03:19:45;100916.13;;;0.74;100.00
12594;BME280;6362;50.208;9.182;2022-11-13T03:22:10;100912.75;;;0.74;100.00
12594;BME280;6362;50.208;9.182;2022-11-13T03:24:36;100914.09;;;0.69;100.00
12594;BME280;6362;50.208;9.182;2022-11-13T03:27:01;100911.16;;;0.62;100.00
12594;BME280;6362;50.208;9.182;2022-11-13T03:29:26;100915.44;;;0.64;100.00
12594;BME280;6362;50.208;9.182;2022-11-13T03:31:52;100912.63;;;0.59;100.00
12594;BME280;6362;50.208;9.182;2022-11-13T03:34:17;100908.47;;;0.59;100.00
12594;BME280;6362;50.208;9.182;2022-11-13T03:36:43;100909.44;;;0.61;100.00
12594;BME280;6362;50.208;9.182;2022-11-13T03:39:09;100902.66;;;0.60;100.00
12594;BME280;6362;50.208;9.182;2022-11-13T03:41:34;100912.69;;;0.60;100.00
12594;BME280;6362;50.208;9.182;2022-11-13T03:44:00;100906.16;;;0.62;100.00
12594;BME280;6362;50.208;9.182;2022-11-13T03:46:25;100907.34;;;0.68;100.00
12594;BME280;6362;50.208;9.182;2022-11-13T03:48:51;100905.03;;;0.71;100.00
12594;BME280;6362;50.208;9.182;2022-11-13T03:51:16;100898.47;;;0.73;100.00
12594;BME280;6362;50.208;9.182;2022-11-13T03:53:41;100895.09;;;0.72;100.00
12594;BME280;6362;50.208;9.182;2022-11-13T03:56:07;100894.50;;;0.76;100.00
12594;BME280;6362;50.208;9.182;2022-11-13T03:58:32;100889.41;;;0.75;100.00
12594;BME280;6362;50.208;9.182;2022-11-13T04:00:58;100890.06;;;0.72;100.00
12594;BME280;6362;50.208;9.182;2022-11-13T04:03:23;100887.34;;;0.69;100.00
12594;BME280;6362;50.208;9.182;2022-11-13T04:05:49;100884.75;;;0.68;100.00
12594;BME280;6362;50.208;9.182;2022-11-13T04:08:15;100883.97;;;0.69;100.00
12594;BME280;6362;50.208;9.182;2022-11-13T04:10:41;100885.19;;;0.62;100.00
12594;BME280;6362;50.208;9.182;2022-11-13T04:13:07;100882.50;;;0.59;100.00
12594;BME280;6362;50.208;9.182;2022-11-13T04:15:32;100877.25;;;0.56;100.00
12594;BME280;6362;50.208;9.182;2022-11-13T04:17:58;100881.22;;;0.52;100.00
12594;BME280;6362;50.208;9.182;2022-11-13T04:20:23;100874.25;;;0.48;100.00
12594;BME280;6362;50.208;9.182;2022-11-13T04:22:49;100874.69;;;0.43;100.00
12594;BME280;6362;50.208;9.182;2022-11-13T04:25:15;100874.59;;;0.41;100.00
12594;BME280;6362;50.208;9.182;2022-11-13T04:27:40;100879.50;;;0.39;100.00
12594;BME280;6362;50.208;9.182;2022-11-13T04:30:06;100878.41;;;0.36;100.00
12594;BME280;6362;50.208;9.182;2022-11-13T04:32:32;100866.78;;;0.36;100.00
12594;BME280;6362;50.208;9.182;2022-11-13T04:34:58;100871.56;;;0.33;100.00
12594;BME280;6362;50.208;9.182;2022-11-13T04:37:23;100871.25;;;0.29;100.00
12594;BME280;6362;50.208;9.182;2022-11-13T04:39:48;100866.03;;;0.26;100.00
12594;BME280;6362;50.208;9.182;2022-11-13T04:42:14;100860.03;;;0.24;100.00
12594;BME280;6362;50.208;9.182;2022-11-13T04:44:57;100861.47;;;0.20;100.00
12594;BME280;6362;50.208;9.182;2022-11-13T04:47:23;100855.47;;;0.18;100.00
12594;BME280;6362;50.208;9.182;2022-11-13T04:49:48;100846.22;;;0.17;100.00
12594;BME280;6362;50.208;9.182;2022-11-13T04:52:14;100849.19;;;0.11;100.00
12594;BME280;6362;50.208;9.182;2022-11-13T04:54:39;100841.00;;;0.14;100.00
12594;BME280;6362;50.208;9.182;2022-11-13T04:57:05;100837.69;;;0.15;100.00
12594;BME280;6362;50.208;9.182;2022-11-13T04:59:30;100832.13;;;0.19;100.00
12594;BME280;6362;50.208;9.182;2022-11-13T05:01:56;100829.94;;;0.24;100.00
12594;BME280;6362;50.208;9.182;2022-11-13T05:04:22;100829.06;;;0.23;100.00
12594;BME280;6362;50.208;9.182;2022-11-13T05:06:47;100823.19;;;0.36;100.00
12594;BME280;6362;50.208;9.182;2022-11-13T05:09:13;100830.72;;;0.36;100.00
12594;BME280;6362;50.208;9.182;2022-11-13T05:11:38;100821.22;;;0.44;100.00
12594;BME280;6362;50.208;9.182;2022-11-13T05:14:04;100820.91;;;0.39;100.00
12594;BME280;6362;50.208;9.182;2022-11-13T05:16:30;100819.09;;;0.36;100.00
12594;BME280;6362;50.208;9.182;2022-11-13T05:18:58;100826.38;;;0.33;100.00
12594;BME280;6362;50.208;9.182;2022-11-13T05:21:24;100826.69;;;0.38;100.00
12594;BME280;6362;50.208;9.182;2022-11-13T05:23:49;100816.47;;;0.35;100.00
12594;BME280;6362;50.208;9.182;2022-11-13T05:26:15;100816.56;;;0.36;100.00
12594;BME280;6362;50.208;9.182;2022-11-13T05:28:40;100820.06;;;0.38;100.00
12594;BME280;6362;50.208;9.182;2022-11-13T05:31:14;100811.19;;;0.44;100.00
12594;BME280;6362;50.208;9.182;2022-11-13T05:33:40;100815.91;;;0.39;100.00
12594;BME280;6362;50.208;9.182;2022-11-13T05:36:14;100806.53;;;0.36;100.00
12594;BME280;6362;50.208;9.182;2022-11-13T05:38:39;100799.19;;;0.39;100.00
12594;BME280;6362;50.208;9.182;2022-11-13T05:41:06;100795.56;;;0.48;100.00
12594;BME280;6362;50.208;9.182;2022-11-13T05:43:33;100789.69;;;0.60;100.00
12594;BME280;6362;50.208;9.182;2022-11-13T05:46:07;100791.91;;;0.69;100.00
12594;BME280;6362;50.208;9.182;2022-11-13T05:48:33;100785.75;;;0.77;100.00
12594;BME280;6362;50.208;9.182;2022-11-13T05:51:04;100777.66;;;0.81;100.00
12594;BME280;6362;50.208;9.182;2022-11-13T05:53:30;100785.47;;;0.86;100.00
12594;BME280;6362;50.208;9.182;2022-11-13T05:56:26;100789.81;;;0.89;100.00
12594;BME280;6362;50.208;9.182;2022-11-13T05:58:52;100784.00;;;0.90;100.00
12594;BME280;6362;50.208;9.182;2022-11-13T06:01:29;100784.13;;;0.91;100.00
12594;BME280;6362;50.208;9.182;2022-11-13T06:03:56;100784.97;;;0.92;100.00
12594;BME280;6362;50.208;9.182;2022-11-13T06:06:23;100777.75;;;0.96;100.00
12594;BME280;6362;50.208;9.182;2022-11-13T06:08:50;100766.94;;;0.97;100.00
12594;BME280;6362;50.208;9.182;2022-11-13T06:11:22;100767.22;;;1.02;100.00
12594;BME280;6362;50.208;9.182;2022-11-13T06:13:49;100776.88;;;1.09;100.00
12594;BME280;6362;50.208;9.182;2022-11-13T06:16:17;100765.38;;;1.13;100.00
12594;BME280;6362;50.208;9.182;2022-11-13T06:18:44;100769.16;;;1.06;100.00
12594;BME280;6362;50.208;9.182;2022-11-13T06:21:13;100768.19;;;1.04;100.00
12594;BME280;6362;50.208;9.182;2022-11-13T06:23:39;100765.97;;;1.09;100.00
12594;BME280;6362;50.208;9.182;2022-11-13T06:28:35;100761.22;;;1.68;100.00
12594;BME280;6362;50.208;9.182;2022-11-13T06:31:05;100760.25;;;1.66;100.00
12594;BME280;6362;50.208;9.182;2022-11-13T06:33:31;100757.56;;;1.63;100.00
12594;BME280;6362;50.208;9.182;2022-11-13T06:35:56;100756.97;;;1.67;100.00
12594;BME280;6362;50.208;9.182;2022-11-13T06:38:22;100757.53;;;1.76;100.00
12594;BME280;6362;50.208;9.182;2022-11-13T06:40:47;100754.25;;;1.64;100.00
12594;BME280;6362;50.208;9.182;2022-11-13T06:43:13;100759.59;;;1.55;100.00
12594;BME280;6362;50.208;9.182;2022-11-13T06:45:38;100749.63;;;1.29;100.00
12594;BME280;6362;50.208;9.182;2022-11-13T06:48:04;100746.84;;;1.11;100.00
12594;BME280;6362;50.208;9.182;2022-11-13T06:50:29;100746.06;;;0.98;100.00
12594;BME280;6362;50.208;9.182;2022-11-13T06:52:55;100743.94;;;0.91;100.00
12594;BME280;6362;50.208;9.182;2022-11-13T06:55:20;100744.41;;;0.86;100.00
12594;BME280;6362;50.208;9.182;2022-11-13T06:57:46;100730.97;;;0.85;100.00
12594;BME280;6362;50.208;9.182;2022-11-13T07:00:11;100728.28;;;0.82;100.00
12594;BME280;6362;50.208;9.182;2022-11-13T07:02:37;100735.13;;;0.85;100.00
12594;BME280;6362;50.208;9.182;2022-11-13T07:05:02;100736.69;;;0.82;100.00
12594;BME280;6362;50.208;9.182;2022-11-13T07:07:28;100740.56;;;0.77;100.00
12594;BME280;6362;50.208;9.182;2022-11-13T07:09:53;100740.25;;;0.73;100.00
12594;BME280;6362;50.208;9.182;2022-11-13T07:12:19;100733.19;;;0.67;100.00
12594;BME280;6362;50.208;9.182;2022-11-13T07:14:44;100735.69;;;0.67;100.00
12594;BME280;6362;50.208;9.182;2022-11-13T07:17:09;100733.69;;;0.75;100.00
12594;BME280;6362;50.208;9.182;2022-11-13T07:19:35;100740.06;;;0.83;100.00
12594;BME280;6362;50.208;9.182;2022-11-13T07:22:00;100739.31;;;0.97;100.00
12594;BME280;6362;50.208;9.182;2022-11-13T07:24:26;100738.63;;;1.13;100.00
12594;BME280;6362;50.208;9.182;2022-11-13T07:26:51;100741.50;;;1.19;100.00
12594;BME280;6362;50.208;9.182;2022-11-13T07:29:16;100738.09;;;1.19;100.00
12594;BME280;6362;50.208;9.182;2022-11-13T07:31:42;100737.69;;;1.26;100.00
12594;BME280;6362;50.208;9.182;2022-11-13T07:34:07;100742.25;;;1.32;100.00
12594;BME280;6362;50.208;9.182;2022-11-13T07:36:33;100733.28;;;1.35;100.00
12594;BME280;6362;50.208;9.182;2022-11-13T07:38:58;100739.22;;;1.37;100.00
12594;BME280;6362;50.208;9.182;2022-11-13T07:41:23;100732.00;;;1.70;100.00
12594;BME280;6362;50.208;9.182;2022-11-13T07:43:49;100727.75;;;2.27;100.00
12594;BME280;6362;50.208;9.182;2022-11-13T07:46:14;100731.72;;;2.98;100.00
12594;BME280;6362;50.208;9.182;2022-11-13T07:48:40;100728.06;;;3.71;100.00
12594;BME280;6362;50.208;9.182;2022-11-13T07:51:05;100728.22;;;4.42;100.00
12594;BME280;6362;50.208;9.182;2022-11-13T07:53:31;100736.84;;;5.17;100.00
12594;BME280;6362;50.208;9.182;2022-11-13T07:56:01;100731.53;;;5.68;100.00
12594;BME280;6362;50.208;9.182;2022-11-13T07:58:27;100735.56;;;6.01;100.00
12594;BME280;6362;50.208;9.182;2022-11-13T08:00:53;100734.19;;;6.29;100.00
12594;BME280;6362;50.208;9.182;2022-11-13T08:03:18;100730.13;;;6.33;100.00
12594;BME280;6362;50.208;9.182;2022-11-13T08:05:44;100729.56;;;6.40;100.00
12594;BME280;6362;50.208;9.182;2022-11-13T08:08:13;100728.06;;;6.24;100.00
12594;BME280;6362;50.208;9.182;2022-11-13T08:10:39;100726.84;;;5.95;100.00
12594;BME280;6362;50.208;9.182;2022-11-13T08:13:08;100725.19;;;5.58;100.00
12594;BME280;6362;50.208;9.182;2022-11-13T08:15:34;100724.19;;;5.17;100.00
12594;BME280;6362;50.208;9.182;2022-11-13T08:18:00;100724.84;;;4.77;100.00
12594;BME280;6362;50.208;9.182;2022-11-13T08:20:28;100727.44;;;4.43;100.00
12594;BME280;6362;50.208;9.182;2022-11-13T08:23:00;100721.03;;;4.15;100.00
12594;BME280;6362;50.208;9.182;2022-11-13T08:25:27;100715.50;;;3.89;100.00
12594;BME280;6362;50.208;9.182;2022-11-13T08:27:54;100713.63;;;3.69;100.00
12594;BME280;6362;50.208;9.182;2022-11-13T08:30:20;100711.81;;;3.50;100.00
12594;BME280;6362;50.208;9.182;2022-11-13T08:32:49;100694.47;;;3.40;100.00
12594;BME280;6362;50.208;9.182;2022-11-13T08:35:15;100695.72;;;3.31;100.00
12594;BME280;6362;50.208;9.182;2022-11-13T08:37:41;100699.41;;;3.22;100.00
12594;BME280;6362;50.208;9.182;2022-11-13T08:40:06;100697.81;;;3.24;100.00
12594;BME280;6362;50.208;9.182;2022-11-13T08:42:32;100691.91;;;3.23;100.00
12594;BME280;6362;50.208;9.182;2022-11-13T08:44:58;100694.66;;;3.11;100.00
12594;BME280;6362;50.208;9.182;2022-11-13T08:47:24;100681.09;;;3.09;100.00
12594;BME280;6362;50.208;9.182;2022-11-13T08:49:53;100673.47;;;3.08;100.00
12594;BME280;6362;50.208;9.182;2022-11-13T08:52:18;100683.00;;;3.13;100.00
12594;BME280;6362;50.208;9.182;2022-11-13T08:54:44;100677.25;;;3.16;100.00
12594;BME280;6362;50.208;9.182;2022-11-13T08:57:09;100678.69;;;3.27;100.00
12594;BME280;6362;50.208;9.182;2022-11-13T08:59:34;100681.78;;;3.71;100.00
12594;BME280;6362;50.208;9.182;2022-11-13T09:02:00;100681.78;;;4.22;100.00
12594;BME280;6362;50.208;9.182;2022-11-13T09:04:25;100665.75;;;4.93;100.00
12594;BME280;6362;50.208;9.182;2022-11-13T09:06:51;100669.59;;;5.59;100.00
12594;BME280;6362;50.208;9.182;2022-11-13T09:09:18;100653.22;;;6.32;100.00
12594;BME280;6362;50.208;9.182;2022-11-13T09:11:44;100652.06;;;7.13;100.00
12594;BME280;6362;50.208;9.182;2022-11-13T09:14:09;100648.47;;;7.78;100.00
12594;BME280;6362;50.208;9.182;2022-11-13T09:16:35;100634.38;;;8.39;100.00
12594;BME280;6362;50.208;9.182;2022-11-13T09:19:00;100631.03;;;8.96;100.00
12594;BME280;6362;50.208;9.182;2022-11-13T09:21:27;100635.84;;;9.46;100.00
12594;BME280;6362;50.208;9.182;2022-11-13T09:23:52;100642.97;;;9.91;100.00
12594;BME280;6362;50.208;9.182;2022-11-13T09:26:17;100642.91;;;10.24;100.00
12594;BME280;6362;50.208;9.182;2022-11-13T09:28:43;100632.06;;;10.68;100.00
12594;BME280;6362;50.208;9.182;2022-11-13T09:31:08;100624.69;;;11.22;100.00
12594;BME280;6362;50.208;9.182;2022-11-13T09:33:34;100636.66;;;11.71;100.00
12594;BME280;6362;50.208;9.182;2022-11-13T09:36:00;100640.75;;;12.06;97.91
12594;BME280;6362;50.208;9.182;2022-11-13T09:38:25;100632.00;;;12.47;100.00
12594;BME280;6362;50.208;9.182;2022-11-13T09:45:58;100639.69;;;13.86;79.04
12594;BME280;6362;50.208;9.182;2022-11-13T09:48:35;100639.97;;;14.18;77.60
12594;BME280;6362;50.208;9.182;2022-11-13T09:51:14;100625.78;;;14.65;75.53
12594;BME280;6362;50.208;9.182;2022-11-13T09:53:40;100621.72;;;15.10;72.48
12594;BME280;6362;50.208;9.182;2022-11-13T09:56:10;100619.22;;;15.25;70.71
12594;BME280;6362;50.208;9.182;2022-11-13T10:01:44;100603.00;;;15.57;68.31
12594;BME280;6362;50.208;9.182;2022-11-13T10:04:13;100595.31;;;16.31;62.68
12594;BME280;6362;50.208;9.182;2022-11-13T10:06:50;100589.19;;;16.90;60.37
12594;BME280;6362;50.208;9.182;2022-11-13T10:11:52;100586.53;;;17.05;58.05
12594;BME280;6362;50.208;9.182;2022-11-13T10:14:28;100572.44;;;17.63;53.57
12594;BME280;6362;50.208;9.182;2022-11-13T10:21:49;100562.59;;;18.13;52.20
12594;BME280;6362;50.208;9.182;2022-11-13T10:24:23;100565.63;;;18.54;50.72
12594;BME280;6362;50.208;9.182;2022-11-13T10:26:49;100571.03;;;19.06;48.64
12594;BME280;6362;50.208;9.182;2022-11-13T10:29:17;100558.91;;;19.67;46.39
12594;BME280;6362;50.208;9.182;2022-11-13T10:31:46;100557.09;;;20.25;45.03
12594;BME280;6362;50.208;9.182;2022-11-13T10:34:13;100556.47;;;20.12;44.37
12594;BME280;6362;50.208;9.182;2022-11-13T10:39:23;100538.47;;;20.95;40.83
12594;BME280;6362;50.208;9.182;2022-11-13T10:41:51;100526.75;;;21.16;41.49
12594;BME280;6362;50.208;9.182;2022-11-13T10:44:34;100527.69;;;21.13;41.73
12594;BME280;6362;50.208;9.182;2022-11-13T10:47:19;100522.16;;;21.66;40.41
12594;BME280;6362;50.208;9.182;2022-11-13T10:49:44;100527.28;;;21.68;39.81
12594;BME280;6362;50.208;9.182;2022-11-13T10:52:24;100524.00;;;21.95;39.78
12594;BME280;6362;50.208;9.182;2022-11-13T10:55:14;100513.63;;;21.95;41.06
12594;BME280;6362;50.208;9.182;2022-11-13T10:57:40;100503.44;;;22.52;37.67
12594;BME280;6362;50.208;9.182;2022-11-13T11:00:39;100492.78;;;22.59;38.22
12594;BME280;6362;50.208;9.182;2022-11-13T11:03:19;100483.78;;;22.41;39.02
12594;BME280;6362;50.208;9.182;2022-11-13T11:05:57;100482.41;;;23.17;37.09
12594;BME280;6362;50.208;9.182;2022-11-13T11:08:34;100487.06;;;22.76;38.36
12594;BME280;6362;50.208;9.182;2022-11-13T11:11:22;100474.81;;;23.10;37.55
12594;BME280;6362;50.208;9.182;2022-11-13T11:14:27;100469.19;;;22.95;38.10
12594;BME280;6362;50.208;9.182;2022-11-13T11:16:54;100455.88;;;24.09;35.12
12594;BME280;6362;50.208;9.182;2022-11-13T11:19:23;100438.22;;;24.85;34.01
12594;BME280;6362;50.208;9.182;2022-11-13T11:21:52;100423.91;;;24.73;33.80
12594;BME280;6362;50.208;9.182;2022-11-13T11:24:29;100423.94;;;24.26;35.23
12594;BME280;6362;50.208;9.182;2022-11-13T11:27:02;100421.69;;;24.17;34.50
12594;BME280;6362;50.208;9.182;2022-11-13T11:29:43;100402.31;;;24.48;34.77
12594;BME280;6362;50.208;9.182;2022-11-13T11:32:34;100402.13;;;24.29;34.79
12594;BME280;6362;50.208;9.182;2022-11-13T11:35:15;100400.97;;;24.82;33.75
12594;BME280;6362;50.208;9.182;2022-11-13T11:38:02;100400.97;;;24.60;33.03
12594;BME280;6362;50.208;9.182;2022-11-13T11:40:35;100395.16;;;24.53;33.15
12594;BME280;6362;50.208;9.182;2022-11-13T11:43:23;100398.59;;;24.54;33.33
12594;BME280;6362;50.208;9.182;2022-11-13T11:45:51;100407.38;;;24.75;33.76
12594;BME280;6362;50.208;9.182;2022-11-13T11:48:20;100412.88;;;24.67;32.75
12594;BME280;6362;50.208;9.182;2022-11-13T11:50:56;100413.06;;;24.39;33.17
12594;BME280;6362;50.208;9.182;2022-11-13T11:59:08;100383.28;;;25.72;31.83
12594;BME280;6362;50.208;9.182;2022-11-13T12:04:45;100369.44;;;25.90;30.63
12594;BME280;6362;50.208;9.182;2022-11-13T12:15:09;100352.78;;;26.67;28.91
12594;BME280;6362;50.208;9.182;2022-11-13T12:23:18;100343.75;;;25.80;30.90
12594;BME280;6362;50.208;9.182;2022-11-13T12:29:13;100340.44;;;27.23;28.50
12594;BME280;6362;50.208;9.182;2022-11-13T12:32:14;100337.41;;;27.64;28.81
12594;BME280;6362;50.208;9.182;2022-11-13T12:34:52;100335.97;;;27.25;29.81
12594;BME280;6362;50.208;9.182;2022-11-13T12:38:17;100340.34;;;27.58;28.03
12594;BME280;6362;50.208;9.182;2022-11-13T12:40:37;100334.38;;;27.72;27.96
12594;BME280;6362;50.208;9.182;2022-11-13T12:43:26;100330.63;;;27.60;27.76
12594;BME280;6362;50.208;9.182;2022-11-13T12:45:56;100325.97;;;27.98;27.69
12594;BME280;6362;50.208;9.182;2022-11-13T12:48:33;100330.16;;;29.11;26.59
12594;BME280;6362;50.208;9.182;2022-11-13T12:51:01;100323.72;;;29.00;26.33
12594;BME280;6362;50.208;9.182;2022-11-13T12:53:30;100310.59;;;29.00;26.04
12594;BME280;6362;50.208;9.182;2022-11-13T12:55:59;100317.34;;;30.46;24.16
12594;BME280;6362;50.208;9.182;2022-11-13T12:58:28;100303.59;;;30.56;24.14
12594;BME280;6362;50.208;9.182;2022-11-13T13:00:57;100310.00;;;31.04;23.28
12594;BME280;6362;50.208;9.182;2022-11-13T13:06:11;100291.50;;;30.66;23.69
12594;BME280;6362;50.208;9.182;2022-11-13T13:08:59;100286.25;;;30.79;23.53
12594;BME280;6362;50.208;9.182;2022-11-13T13:11:36;100288.84;;;31.44;23.20
12594;BME280;6362;50.208;9.182;2022-11-13T13:17:06;100275.03;;;30.89;23.73
12594;BME280;6362;50.208;9.182;2022-11-13T13:19:41;100270.53;;;30.64;24.28
12594;BME280;6362;50.208;9.182;2022-11-13T13:22:11;100272.06;;;31.32;23.02
12594;BME280;6362;50.208;9.182;2022-11-13T13:24:40;100270.19;;;30.96;23.15
12594;BME280;6362;50.208;9.182;2022-11-13T13:27:23;100273.63;;;30.17;23.99
12594;BME280;6362;50.208;9.182;2022-11-13T13:29:49;100268.88;;;30.09;23.91
12594;BME280;6362;50.208;9.182;2022-11-13T13:32:30;100253.28;;;30.06;23.98
12594;BME280;6362;50.208;9.182;2022-11-13T13:35:07;100247.31;;;30.04;24.69
12594;BME280;6362;50.208;9.182;2022-11-13T13:37:50;100245.13;;;30.11;24.70
12594;BME280;6362;50.208;9.182;2022-11-13T13:40:44;100250.00;;;30.69;24.34
12594;BME280;6362;50.208;9.182;2022-11-13T13:46:32;100229.56;;;30.47;25.21
12594;BME280;6362;50.208;9.182;2022-11-13T13:49:07;100236.00;;;30.56;24.78
12594;BME280;6362;50.208;9.182;2022-11-13T13:51:41;100233.28;;;31.09;24.45
12594;BME280;6362;50.208;9.182;2022-11-13T13:54:08;100232.03;;;31.02;24.36
12594;BME280;6362;50.208;9.182;2022-11-13T13:56:40;100226.38;;;30.55;25.21
12594;BME280;6362;50.208;9.182;2022-11-13T13:59:19;100219.44;;;30.41;25.09
12594;BME280;6362;50.208;9.182;2022-11-13T14:01:56;100210.00;;;30.24;25.39
12594;BME280;6362;50.208;9.182;2022-11-13T14:04:25;100223.56;;;30.58;25.38
12594;BME280;6362;50.208;9.182;2022-11-13T14:06:57;100208.53;;;30.20;25.88